Terminal Aerodrome Forecast
Issued by NWS St Louis, MO

Home | Current Version | Previous Version | Text Only | Print | Product List | Glossary Off
Versions: 1 2 3 4 5 6 7 8 9 10 11 12 13 14 15 16 17 18 19 20 21 22 23 24 25

000
FTUS43 KLSX 262322
TAFSTL
TAF
KSTL 262322Z 2700/2806 17007KT P6SM SCT250
     FM270500 19007KT P6SM VCTS BKN060CB
     FM271300 18010KT 6SM -SHRA VCTS SCT025 OVC050CB
     FM271800 18014G26KT P6SM VCTS BKN040CB
     FM280000 17009KT P6SM VCSH BKN050=

USA.gov is the U.S. government's official web portal to all federal, state and local government web resources and services.